createdAt,value
2023-04-11T00:00:31.552Z,5.30
2023-04-11T00:03:00.305Z,5.28
2023-04-11T00:05:33.446Z,4.53
2023-04-11T00:07:59.886Z,4.45
2023-04-11T00:10:26.315Z,3.78
2023-04-11T00:12:56.390Z,4.55
2023-04-11T00:15:24.105Z,5.82
2023-04-11T00:17:50.992Z,6.55
2023-04-11T00:20:17.436Z,5.43
2023-04-11T00:22:43.875Z,5.60
2023-04-11T00:25:10.363Z,7.38
2023-04-11T00:27:36.794Z,6.50
2023-04-11T00:30:03.606Z,4.57
2023-04-11T00:32:30.620Z,6.38
2023-04-11T00:34:57.020Z,5.97
2023-04-11T00:37:23.435Z,6.53
2023-04-11T00:39:56.356Z,11.13
2023-04-11T00:42:22.818Z,5.18
2023-04-11T00:44:49.350Z,7.32
2023-04-11T00:47:15.828Z,5.65
2023-04-11T00:49:42.362Z,5.47
2023-04-11T00:52:09.404Z,5.50
2023-04-11T00:54:35.856Z,4.63
2023-04-11T00:57:02.946Z,5.03
2023-04-11T00:59:30.001Z,4.15
2023-04-11T01:01:57.036Z,8.48
2023-04-11T01:04:24.061Z,9.07
2023-04-11T01:06:53.002Z,16.00
2023-04-11T01:09:25.606Z,5.50
2023-04-11T01:11:52.106Z,5.32
2023-04-11T01:14:19.049Z,7.60
2023-04-11T01:16:50.628Z,6.07
2023-04-11T01:19:21.050Z,4.07
2023-04-11T01:21:52.044Z,8.98
2023-04-11T01:26:45.376Z,4.85
2023-04-11T01:29:11.779Z,6.68
2023-04-11T01:31:38.376Z,5.35
2023-04-11T01:34:05.172Z,4.68
2023-04-11T01:36:32.309Z,7.35
2023-04-11T01:38:59.115Z,4.85
2023-04-11T01:41:26.721Z,6.03
2023-04-11T01:43:53.209Z,6.68
2023-04-11T01:46:19.794Z,5.05
2023-04-11T01:48:46.390Z,4.55
2023-04-11T01:51:12.837Z,10.00
2023-04-11T01:53:39.290Z,4.82
2023-04-11T01:56:06.019Z,5.72
2023-04-11T01:58:34.867Z,5.63
2023-04-11T02:01:01.857Z,7.60
2023-04-11T02:03:28.667Z,4.43
2023-04-11T02:05:55.893Z,4.70
2023-04-11T02:08:22.306Z,6.57
2023-04-11T02:10:48.830Z,5.15
2023-04-11T02:13:15.437Z,5.40
2023-04-11T02:15:41.917Z,5.55
2023-04-11T02:18:09.491Z,6.82
2023-04-11T02:20:40.527Z,6.25
2023-04-11T02:25:33.308Z,7.32
2023-04-11T02:28:00.125Z,6.57
2023-04-11T02:30:26.590Z,10.88
2023-04-11T02:32:53.221Z,5.97
2023-04-11T02:35:19.819Z,6.22
2023-04-11T02:37:46.317Z,8.18
2023-04-11T02:40:12.810Z,7.05
2023-04-11T02:42:43.027Z,7.32
2023-04-11T02:45:09.921Z,6.82
2023-04-11T02:47:36.590Z,7.65
2023-04-11T02:50:03.032Z,7.38
2023-04-11T02:52:29.392Z,6.45
2023-04-11T02:54:55.911Z,12.98
2023-04-11T02:57:22.325Z,7.18
2023-04-11T02:59:48.744Z,7.55
2023-04-11T03:02:15.249Z,7.32
2023-04-11T03:04:41.734Z,6.25
2023-04-11T03:07:08.090Z,7.35
2023-04-11T03:09:34.478Z,5.78
2023-04-11T03:12:01.334Z,7.10
2023-04-11T03:14:27.789Z,6.55
2023-04-11T03:16:54.292Z,7.88
2023-04-11T03:19:21.102Z,7.55
2023-04-11T03:21:47.564Z,8.40
2023-04-11T03:24:13.942Z,10.10
2023-04-11T03:26:40.492Z,8.27
2023-04-11T03:29:07.063Z,11.60
2023-04-11T03:31:33.575Z,8.82
2023-04-11T03:34:00.048Z,8.50
2023-04-11T03:36:29.946Z,8.18
2023-04-11T03:38:56.545Z,8.05
2023-04-11T03:41:23.120Z,9.40
2023-04-11T03:43:49.538Z,8.40
2023-04-11T03:46:15.954Z,7.28
2023-04-11T03:48:42.409Z,8.43
2023-04-11T03:51:08.856Z,7.20
2023-04-11T03:53:35.497Z,8.48
2023-04-11T03:56:01.927Z,6.43
2023-04-11T03:58:28.332Z,8.63
2023-04-11T04:00:54.802Z,8.13
2023-04-11T04:03:21.590Z,14.27
2023-04-11T04:05:48.095Z,8.60
2023-04-11T04:08:14.699Z,6.90
2023-04-11T04:10:41.077Z,7.32
2023-04-11T04:13:07.494Z,7.07
2023-04-11T04:15:33.911Z,11.00
2023-04-11T04:18:00.432Z,6.88
2023-04-11T04:20:30.029Z,8.60
2023-04-11T04:22:56.448Z,9.82
2023-04-11T04:25:25.760Z,10.00
2023-04-11T04:27:54.293Z,8.40
2023-04-11T04:30:21.907Z,9.88
2023-04-11T04:32:48.418Z,7.63
2023-04-11T04:35:16.778Z,13.63
2023-04-11T04:37:45.725Z,8.48
2023-04-11T04:40:14.127Z,9.63
2023-04-11T04:42:44.163Z,9.30
2023-04-11T04:45:13.530Z,12.53
2023-04-11T04:47:41.669Z,7.35
2023-04-11T04:50:08.314Z,11.52
2023-04-11T04:52:34.822Z,10.20
2023-04-11T04:55:01.637Z,11.93
2023-04-11T04:57:29.353Z,8.50
2023-04-11T04:59:56.311Z,11.07
2023-04-11T05:02:23.092Z,9.00
2023-04-11T05:04:50.302Z,10.05
2023-04-11T05:07:18.818Z,8.02
2023-04-11T05:09:45.401Z,14.20
2023-04-11T05:12:13.656Z,11.73
2023-04-11T05:14:40.065Z,7.35
2023-04-11T05:17:06.490Z,11.90
2023-04-11T05:19:33.160Z,7.97
2023-04-11T05:21:59.563Z,12.48
2023-04-11T05:24:26.065Z,11.05
2023-04-11T05:26:52.553Z,11.85
2023-04-11T05:29:18.939Z,9.48
2023-04-11T05:31:45.479Z,12.52
2023-04-11T05:34:11.909Z,11.95
2023-04-11T05:36:38.301Z,9.68
2023-04-11T05:39:04.780Z,14.93
2023-04-11T05:41:31.231Z,10.10
2023-04-11T05:43:57.868Z,8.32
2023-04-11T05:46:26.723Z,13.52
2023-04-11T05:48:53.097Z,10.25
2023-04-11T05:51:19.457Z,8.38
2023-04-11T05:53:45.893Z,15.07
2023-04-11T05:56:12.896Z,9.07
2023-04-11T05:58:39.615Z,17.25
2023-04-11T06:01:07.322Z,9.75
2023-04-11T06:03:33.986Z,11.35
2023-04-11T06:06:00.634Z,9.82
2023-04-11T06:08:27.625Z,9.90
2023-04-11T06:10:54.061Z,10.48
2023-04-11T06:13:20.743Z,9.00
2023-04-11T06:15:47.416Z,11.27
2023-04-11T06:18:13.862Z,11.07
2023-04-11T06:20:40.514Z,13.68
2023-04-11T06:23:07.306Z,11.32
2023-04-11T06:25:33.694Z,10.75
2023-04-11T06:28:02.008Z,14.57
2023-04-11T06:30:28.470Z,10.70
2023-04-11T06:32:56.061Z,11.95
2023-04-11T06:35:25.088Z,10.13
2023-04-11T06:37:52.189Z,11.68
2023-04-11T06:40:20.528Z,11.48
2023-04-11T06:42:47.408Z,14.90
2023-04-11T06:45:16.928Z,11.85
2023-04-11T06:47:43.374Z,19.35
2023-04-11T06:50:10.120Z,11.65
2023-04-11T06:52:36.939Z,12.23
2023-04-11T06:55:03.450Z,12.25
2023-04-11T06:57:29.897Z,13.10
2023-04-11T06:59:56.345Z,12.63
2023-04-11T07:02:25.337Z,14.65
2023-04-11T07:04:52.840Z,13.95
2023-04-11T07:07:19.378Z,12.52
2023-04-11T07:09:47.545Z,12.43
2023-04-11T07:12:14.031Z,10.35
2023-04-11T07:14:40.770Z,15.45
2023-04-11T07:17:07.181Z,12.90
2023-04-11T07:19:33.638Z,16.92
2023-04-11T07:22:00.481Z,12.73
2023-04-11T07:24:27.180Z,14.55
2023-04-11T07:26:54.309Z,11.65
2023-04-11T07:29:21.373Z,12.32
2023-04-11T07:31:47.976Z,12.00
2023-04-11T07:34:14.454Z,13.00
2023-04-11T07:36:41.888Z,11.95
2023-04-11T07:39:09.465Z,13.75
2023-04-11T07:41:39.306Z,12.45
2023-04-11T07:44:06.965Z,11.63
2023-04-11T07:46:33.825Z,13.32
2023-04-11T07:49:00.333Z,15.30
2023-04-11T07:51:27.157Z,10.73
2023-04-11T07:53:54.508Z,12.38
2023-04-11T07:56:21.151Z,16.75
2023-04-11T07:58:47.580Z,12.38
2023-04-11T08:01:24.993Z,13.48
2023-04-11T08:03:52.982Z,16.17
2023-04-11T08:06:19.771Z,14.10
2023-04-11T08:08:46.726Z,14.38
2023-04-11T08:11:13.243Z,14.50
2023-04-11T08:13:39.675Z,17.80
2023-04-11T08:16:10.225Z,15.85
2023-04-11T08:18:37.531Z,16.75
2023-04-11T08:21:04.079Z,14.48
2023-04-11T08:23:30.474Z,15.80
2023-04-11T08:25:56.883Z,17.40
2023-04-11T08:28:26.563Z,16.05
2023-04-11T08:30:55.340Z,14.40
2023-04-11T08:33:25.603Z,14.70
2023-04-11T08:35:52.045Z,14.85
2023-04-11T08:38:18.468Z,14.77
2023-04-11T08:40:44.962Z,17.45
2023-04-11T08:43:12.437Z,16.50
2023-04-11T08:45:42.273Z,19.15
2023-04-11T08:48:09.382Z,16.23
2023-04-11T08:50:36.061Z,16.73
2023-04-11T08:53:03.389Z,15.75
2023-04-11T08:55:30.489Z,15.63
2023-04-11T08:57:59.203Z,18.20
2023-04-11T09:00:27.278Z,18.92
2023-04-11T09:02:57.625Z,18.48
2023-04-11T09:05:27.113Z,16.95
2023-04-11T09:07:53.584Z,16.95
2023-04-11T09:10:20.502Z,17.23
2023-04-11T09:12:49.723Z,16.08
2023-04-11T09:15:23.499Z,14.20
2023-04-11T09:17:50.002Z,18.30
2023-04-11T09:20:17.831Z,19.33
2023-04-11T09:22:44.408Z,15.35
2023-04-11T09:25:10.801Z,17.77
2023-04-11T09:27:37.373Z,14.88
2023-04-11T09:30:05.786Z,16.92
2023-04-11T09:32:35.821Z,16.65
2023-04-11T09:35:13.132Z,17.13
2023-04-11T09:37:44.726Z,17.27
2023-04-11T09:40:12.098Z,16.70
2023-04-11T09:42:38.689Z,19.35
2023-04-11T09:45:05.588Z,21.40
2023-04-11T09:47:35.251Z,23.15
2023-04-11T09:50:03.580Z,21.17
2023-04-11T09:52:31.634Z,18.75
2023-04-11T09:54:58.311Z,23.30
2023-04-11T09:57:25.060Z,18.85
2023-04-11T09:59:52.443Z,18.13
2023-04-11T10:02:18.956Z,19.58
2023-04-11T10:04:45.668Z,16.48
2023-04-11T10:07:18.293Z,19.80
2023-04-11T10:09:45.431Z,18.95
2023-04-11T10:12:11.872Z,17.95
2023-04-11T10:14:38.568Z,17.55
2023-04-11T10:17:12.088Z,19.10
2023-04-11T10:19:38.563Z,18.77
2023-04-11T10:22:05.033Z,19.15
2023-04-11T10:24:31.506Z,18.83
2023-04-11T10:26:59.222Z,20.52
2023-04-11T10:29:36.473Z,18.90
2023-04-11T10:32:09.621Z,16.60
2023-04-11T10:34:39.967Z,17.65
2023-04-11T10:37:09.900Z,18.15
2023-04-11T10:39:51.738Z,22.95
2023-04-11T10:42:53.600Z,17.70
2023-04-11T10:45:27.087Z,18.83
2023-04-11T10:47:53.443Z,25.20
2023-04-11T10:50:26.104Z,17.25
2023-04-11T10:52:59.333Z,16.75
2023-04-11T10:55:27.223Z,17.63
2023-04-11T10:58:09.400Z,18.25
2023-04-11T11:00:51.352Z,16.65
2023-04-11T11:03:24.694Z,20.73
2023-04-11T11:06:00.486Z,19.02
2023-04-11T11:08:27.618Z,15.88
2023-04-11T11:10:54.679Z,17.15
2023-04-11T11:13:22.130Z,16.60
2023-04-11T11:15:49.307Z,13.85
2023-04-11T11:18:16.180Z,16.45
2023-04-11T11:20:42.640Z,15.65
2023-04-11T11:23:11.509Z,15.38
2023-04-11T11:25:38.005Z,16.88
2023-04-11T11:28:08.445Z,17.10
2023-04-11T11:30:38.724Z,19.88
2023-04-11T11:33:18.430Z,17.10
2023-04-11T11:36:07.591Z,17.80
2023-04-11T11:38:34.030Z,19.67
2023-04-11T11:41:00.636Z,21.55
2023-04-11T11:43:30.518Z,18.40
2023-04-11T11:46:09.334Z,18.40
2023-04-11T11:48:36.240Z,18.30
2023-04-11T11:51:02.653Z,16.88
2023-04-11T11:53:29.051Z,16.52
2023-04-11T11:55:56.757Z,18.55
2023-04-11T11:58:23.256Z,20.40
2023-04-11T12:00:50.576Z,19.48
2023-04-11T12:03:20.110Z,16.95
2023-04-11T12:05:47.795Z,18.02
2023-04-11T12:08:14.515Z,15.68
2023-04-11T12:10:42.135Z,15.18
2023-04-11T12:13:12.083Z,15.38
2023-04-11T12:15:38.579Z,14.68
2023-04-11T12:18:05.833Z,15.30
2023-04-11T12:20:32.760Z,16.70
2023-04-11T12:22:59.228Z,16.10
2023-04-11T12:25:25.933Z,15.82
2023-04-11T12:27:52.400Z,15.00
2023-04-11T12:30:18.950Z,16.45
2023-04-11T12:32:45.609Z,18.00
2023-04-11T12:35:12.570Z,13.02
2023-04-11T12:37:39.146Z,12.70
2023-04-11T12:40:09.328Z,13.98
2023-04-11T12:42:41.981Z,14.07
2023-04-11T12:45:13.957Z,14.60
2023-04-11T12:47:40.801Z,15.88
2023-04-11T12:50:08.098Z,14.88
2023-04-11T12:52:34.829Z,15.23
2023-04-11T12:55:01.461Z,17.00
2023-04-11T12:57:28.184Z,15.15
2023-04-11T12:59:54.732Z,15.20
2023-04-11T13:02:21.502Z,16.95
2023-04-11T13:04:50.511Z,15.77
2023-04-11T13:07:17.035Z,16.35
2023-04-11T13:09:43.489Z,17.35
2023-04-11T13:12:09.973Z,14.57
2023-04-11T13:14:36.608Z,15.57
2023-04-11T13:17:03.262Z,16.40
2023-04-11T13:19:29.694Z,13.77
2023-04-11T13:21:56.189Z,14.98
2023-04-11T13:24:22.739Z,14.32
2023-04-11T13:26:49.205Z,17.63
2023-04-11T13:29:17.287Z,14.73
2023-04-11T13:31:43.888Z,14.15
2023-04-11T13:34:10.833Z,15.05
2023-04-11T13:36:37.673Z,13.70
2023-04-11T13:39:05.627Z,15.57
2023-04-11T13:41:32.560Z,13.93
2023-04-11T13:43:59.057Z,12.98
2023-04-11T13:46:26.083Z,13.52
2023-04-11T13:48:52.916Z,15.32
2023-04-11T13:51:19.501Z,14.27
2023-04-11T13:53:46.143Z,11.80
2023-04-11T13:56:12.597Z,12.98
2023-04-11T13:58:39.066Z,13.32
2023-04-11T14:01:06.753Z,11.65
2023-04-11T14:03:33.858Z,15.30
2023-04-11T14:06:00.741Z,10.77
2023-04-11T14:08:27.609Z,13.07
2023-04-11T14:10:54.285Z,13.68
2023-04-11T14:13:20.864Z,11.93
2023-04-11T14:15:49.681Z,10.18
2023-04-11T14:18:21.587Z,10.70
2023-04-11T14:20:48.459Z,13.27
2023-04-11T14:23:16.585Z,10.88
2023-04-11T14:25:43.347Z,11.57
2023-04-11T14:28:09.743Z,13.75
2023-04-11T14:30:36.474Z,10.77
2023-04-11T14:33:03.034Z,9.50
2023-04-11T14:35:29.489Z,11.30
2023-04-11T14:37:57.110Z,10.05
2023-04-11T14:40:23.582Z,10.73
2023-04-11T14:42:49.974Z,9.30
2023-04-11T14:45:16.542Z,11.93
2023-04-11T14:47:43.516Z,9.63
2023-04-11T14:50:10.308Z,10.55
2023-04-11T14:52:36.708Z,12.88
2023-04-11T14:55:03.593Z,12.68
2023-04-11T14:57:49.174Z,14.05
2023-04-11T15:00:19.854Z,10.40
2023-04-11T15:02:47.257Z,10.63
2023-04-11T15:05:15.189Z,9.52
2023-04-11T15:07:41.660Z,10.93
2023-04-11T15:10:08.502Z,9.43
2023-04-11T15:12:34.910Z,7.15
2023-04-11T15:15:01.347Z,9.77
2023-04-11T15:17:27.805Z,7.35
2023-04-11T15:19:55.368Z,5.85
2023-04-11T15:22:22.030Z,6.00
2023-04-11T15:24:48.451Z,6.22
2023-04-11T15:27:14.882Z,4.50
2023-04-11T15:29:41.282Z,7.05
2023-04-11T15:32:07.668Z,6.25
2023-04-11T15:34:34.073Z,6.88
2023-04-11T15:37:00.458Z,10.85
2023-04-11T15:39:27.173Z,8.68
2023-04-11T15:41:53.603Z,6.53
2023-04-11T15:44:20.020Z,8.38
2023-04-11T15:46:48.996Z,8.88
2023-04-11T15:49:17.601Z,8.25
2023-04-11T15:51:44.874Z,11.23
2023-04-11T15:54:11.435Z,8.73
2023-04-11T15:56:37.894Z,8.50
2023-04-11T15:59:04.285Z,7.75
2023-04-11T16:01:30.969Z,12.20
2023-04-11T16:03:57.952Z,9.95
2023-04-11T16:06:24.637Z,9.23
2023-04-11T16:08:51.272Z,8.82
2023-04-11T16:11:17.700Z,9.45
2023-04-11T16:13:44.169Z,10.55
2023-04-11T16:16:11.423Z,9.27
2023-04-11T16:18:37.880Z,9.82
2023-04-11T16:21:04.526Z,9.02
2023-04-11T16:23:30.981Z,8.40
2023-04-11T16:25:57.372Z,9.68
2023-04-11T16:28:25.928Z,10.82
2023-04-11T16:30:52.328Z,9.18
2023-04-11T16:33:18.988Z,8.15
2023-04-11T16:35:46.009Z,7.13
2023-04-11T16:38:12.875Z,10.57
2023-04-11T16:40:39.635Z,9.82
2023-04-11T16:43:06.061Z,8.50
2023-04-11T16:45:32.861Z,9.05
2023-04-11T16:47:59.422Z,7.97
2023-04-11T16:50:26.047Z,5.57
2023-04-11T16:52:52.510Z,9.00
2023-04-11T16:55:19.083Z,9.55
2023-04-11T16:57:45.481Z,6.35
2023-04-11T17:00:19.871Z,6.30
2023-04-11T17:02:49.230Z,6.85
2023-04-11T17:05:18.881Z,8.38
2023-04-11T17:07:45.439Z,7.93
2023-04-11T17:10:11.912Z,8.65
2023-04-11T17:12:38.302Z,13.85
2023-04-11T17:15:08.554Z,10.77
2023-04-11T17:17:35.079Z,12.13
2023-04-11T17:20:07.715Z,8.68
2023-04-11T17:22:34.106Z,7.45
2023-04-11T17:25:00.594Z,8.20
2023-04-11T17:27:27.059Z,7.72
2023-04-11T17:29:53.475Z,9.23
2023-04-11T17:32:19.862Z,6.32
2023-04-11T17:34:47.693Z,7.68
2023-04-11T17:37:14.075Z,9.73
2023-04-11T17:39:40.475Z,9.52
2023-04-11T17:42:07.379Z,9.90
2023-04-11T17:44:34.149Z,6.55
2023-04-11T17:47:00.594Z,8.50
2023-04-11T17:49:27.448Z,6.72
2023-04-11T17:51:59.005Z,13.43
2023-04-11T17:54:26.144Z,7.90
2023-04-11T17:56:52.678Z,9.63
2023-04-11T17:59:20.207Z,10.90
2023-04-11T18:01:47.146Z,8.18
2023-04-11T18:04:14.932Z,6.70
2023-04-11T18:06:42.428Z,8.13
2023-04-11T18:09:09.179Z,8.80
2023-04-11T18:11:37.650Z,6.65
2023-04-11T18:14:04.046Z,9.90
2023-04-11T18:16:30.633Z,6.20
2023-04-11T18:18:57.342Z,8.75
2023-04-11T18:21:23.812Z,12.18
2023-04-11T18:23:50.338Z,7.68
2023-04-11T18:26:16.709Z,10.25
2023-04-11T18:28:43.106Z,8.05
2023-04-11T18:31:09.704Z,8.25
2023-04-11T18:33:37.318Z,10.77
2023-04-11T18:36:07.203Z,6.65
2023-04-11T18:38:33.627Z,7.57
2023-04-11T18:41:03.832Z,6.68
2023-04-11T18:43:31.748Z,11.82
2023-04-11T18:46:00.780Z,7.95
2023-04-11T18:48:27.534Z,11.57
2023-04-11T18:50:59.886Z,8.18
2023-04-11T18:53:28.231Z,11.05
2023-04-11T18:55:54.855Z,9.02
2023-04-11T18:58:25.599Z,5.57
2023-04-11T19:00:53.196Z,6.95
2023-04-11T19:03:20.034Z,8.55
2023-04-11T19:05:47.701Z,11.15
2023-04-11T19:08:17.607Z,7.00
2023-04-11T19:10:44.054Z,8.85
2023-04-11T19:13:10.728Z,8.13
2023-04-11T19:15:39.789Z,8.07
2023-04-11T19:18:07.404Z,10.07
2023-04-11T19:20:34.104Z,8.98
2023-04-11T19:23:01.323Z,10.18
2023-04-11T19:25:31.190Z,11.10
2023-04-11T19:27:57.630Z,9.77
2023-04-11T19:30:26.638Z,14.23
2023-04-11T19:32:53.241Z,9.75
2023-04-11T19:35:24.079Z,9.77
2023-04-11T19:40:18.506Z,12.02
2023-04-11T19:42:45.075Z,12.00
2023-04-11T19:45:12.161Z,8.70
2023-04-11T19:47:41.711Z,8.05
2023-04-11T19:50:11.612Z,6.47
2023-04-11T19:52:38.181Z,6.28
2023-04-11T19:55:04.931Z,4.85
2023-04-11T19:58:25.362Z,7.55
2023-04-11T20:00:53.070Z,7.47
2023-04-11T20:03:20.367Z,6.07
2023-04-11T20:05:47.081Z,6.45
2023-04-11T20:08:13.733Z,9.73
2023-04-11T20:10:40.487Z,5.85
2023-04-11T20:13:07.227Z,28.95
2023-04-11T20:15:33.596Z,11.48
2023-04-11T20:18:00.051Z,10.50
2023-04-11T20:20:27.937Z,8.00
2023-04-11T20:22:54.807Z,6.43
2023-04-11T20:25:21.402Z,9.98
2023-04-11T20:27:47.772Z,9.25
2023-04-11T20:30:15.929Z,7.82
2023-04-11T20:32:42.992Z,9.88
2023-04-11T20:35:10.153Z,7.28
2023-04-11T20:37:36.709Z,7.82
2023-04-11T20:40:07.347Z,6.80
2023-04-11T20:42:35.149Z,4.95
2023-04-11T20:45:06.117Z,17.95
2023-04-11T20:50:04.151Z,9.63
2023-04-11T20:52:31.310Z,9.50
2023-04-11T20:55:00.323Z,18.92
2023-04-11T20:57:29.822Z,15.98
2023-04-11T20:59:56.924Z,18.00
2023-04-11T21:02:26.738Z,21.70
2023-04-11T21:04:53.784Z,16.27
2023-04-11T21:07:20.808Z,38.90
2023-04-11T21:09:48.627Z,12.88
2023-04-11T21:12:15.470Z,9.50
2023-04-11T21:14:41.928Z,9.25
2023-04-11T21:17:09.124Z,10.57
2023-04-11T21:19:36.318Z,10.32
2023-04-11T21:22:03.191Z,5.72
2023-04-11T21:24:33.394Z,6.47
2023-04-11T21:27:00.130Z,5.35
2023-04-11T21:29:27.000Z,10.07
2023-04-11T21:31:53.425Z,6.82
2023-04-11T21:34:19.835Z,7.22
2023-04-11T21:36:46.312Z,6.22
2023-04-11T21:39:12.745Z,5.30
2023-04-11T21:41:39.312Z,7.97
2023-04-11T21:44:05.766Z,8.25
2023-04-11T21:46:32.328Z,3.85
2023-04-11T21:48:58.867Z,6.57
2023-04-11T21:51:26.605Z,3.40
2023-04-11T21:53:53.008Z,5.32
2023-04-11T21:56:19.399Z,7.10
2023-04-11T21:58:46.048Z,9.15
2023-04-11T22:01:12.855Z,4.40
2023-04-11T22:03:42.367Z,5.13
2023-04-11T22:06:09.942Z,6.82
2023-04-11T22:08:38.882Z,5.22
2023-04-11T22:11:07.686Z,9.32
2023-04-11T22:13:34.970Z,7.90
2023-04-11T22:16:05.702Z,8.88
2023-04-11T22:18:34.089Z,4.13
2023-04-11T22:21:03.060Z,4.53
2023-04-11T22:23:29.963Z,7.35
2023-04-11T22:25:57.696Z,4.97
2023-04-11T22:28:24.207Z,6.18
2023-04-11T22:30:50.605Z,4.30
2023-04-11T22:33:17.031Z,8.27
2023-04-11T22:35:49.380Z,3.67
2023-04-11T22:38:16.810Z,10.48
2023-04-11T22:40:43.323Z,9.50
2023-04-11T22:43:10.643Z,6.13
2023-04-11T22:45:37.313Z,7.82
2023-04-11T22:48:04.630Z,4.78
2023-04-11T22:50:32.209Z,6.55
2023-04-11T22:53:01.962Z,6.35
2023-04-11T22:55:34.515Z,6.28
2023-04-11T22:58:01.593Z,5.55
2023-04-11T23:00:28.969Z,7.75
2023-04-11T23:02:56.782Z,6.22
2023-04-11T23:05:26.264Z,4.40
2023-04-11T23:07:52.763Z,5.47
2023-04-11T23:10:19.332Z,6.50
2023-04-11T23:12:47.304Z,4.93
2023-04-11T23:15:13.773Z,6.43
2023-04-11T23:17:40.249Z,8.65
2023-04-11T23:20:11.176Z,5.57
2023-04-11T23:25:04.685Z,5.32
2023-04-11T23:27:31.237Z,4.68
2023-04-11T23:29:58.774Z,8.27
2023-04-11T23:32:25.300Z,3.95
2023-04-11T23:34:51.731Z,6.30
2023-04-11T23:37:19.577Z,5.22
2023-04-11T23:39:48.064Z,6.28
2023-04-11T23:42:14.686Z,6.88
2023-04-11T23:44:41.186Z,4.93
2023-04-11T23:47:07.982Z,4.35
2023-04-11T23:49:34.424Z,2.97
2023-04-11T23:52:00.990Z,4.88
2023-04-11T23:54:31.215Z,6.15
2023-04-11T23:56:59.773Z,4.85
2023-04-11T23:59:26.146Z,5.47
